Terminal Aerodrome Forecast
Issued by NWS

Home | Current Version | Previous Version | Text Only | Print | Product List | Glossary On
Versions: 1 2 3 4 5 6 7 8 9 10 11 12 13 14 15 16 17 18 19 20 21 22 23 24 25
147
FTUS44 KEWX 040126 AAA
TAFSSF
TAF AMD
KSSF 040126Z 0401/0424 05010KT P6SM OVC007
     FM040500 02012KT 3SM SHRA BR OVC005
     FM041300 01012KT 5SM -SHRA OVC008
     FM041800 03012KT 5SM BR OVC008 PROB30 0418/0424 -SHRA=

USA.gov is the U.S. government's official web portal to all federal, state and local government web resources and services.